Time;durP1;ratioP1;P1;durP2;ratioP2;P2;SDS_P1;SDS_P2;PMS_P1;PMS_P2;Temp;Humidity;BMP_temperature;BMP_pressure;BME280_temperature;BME280_humidity;BME280_pressure;Samples;Min_cycle;Max_cycle;Signal;HPM_P1;HPM_P2
2022/06/28 00:02:08;;;;;;;5.47;3.55;;;25.50;61.80;;;;;;4952525;29;20058;-74
2022/06/28 00:04:34;;;;;;;6.32;4.07;;;25.50;62.70;;;;;;4962277;28;20502;-74
2022/06/28 00:07:00;;;;;;;5.18;3.65;;;25.50;62.30;;;;;;4968877;23;20031;-73
2022/06/28 00:09:26;;;;;;;5.75;3.90;;;25.50;62.50;;;;;;4957053;28;20503;-73
2022/06/28 00:11:52;;;;;;;4.10;3.58;;;25.50;62.80;;;;;;4948678;28;20448;-72
2022/06/28 00:17:03;;;;;;;5.25;4.45;;;25.40;63.40;;;;;;4953718;28;20098;-73
2022/06/28 00:19:29;;;;;;;6.63;4.47;;;25.50;63.90;;;;;;4952101;29;20070;-73
2022/06/28 00:21:55;;;;;;;7.03;3.90;;;25.50;64.20;;;;;;4954053;28;20430;-73
2022/06/28 00:24:22;;;;;;;9.63;4.20;;;25.50;64.20;;;;;;4951801;29;20507;-72
2022/06/28 00:26:49;;;;;;;5.65;4.57;;;25.50;64.50;;;;;;4959965;28;20135;-73
2022/06/28 00:29:16;;;;;;;5.65;4.10;;;25.50;65.10;;;;;;4951288;28;20019;-73
2022/06/28 00:31:43;;;;;;;5.93;4.50;;;25.50;65.00;;;;;;4952062;29;20028;-73
2022/06/28 00:34:08;;;;;;;8.15;4.35;;;25.50;65.00;;;;;;4951600;29;20027;-72
2022/06/28 00:36:35;;;;;;;9.43;4.97;;;25.50;65.10;;;;;;4958303;28;20038;-72
2022/06/28 00:39:01;;;;;;;5.78;4.55;;;25.50;65.20;;;;;;4953932;28;20019;-73
2022/06/28 00:41:27;;;;;;;7.25;4.63;;;25.50;65.20;;;;;;4957689;28;20550;-72
2022/06/28 00:43:53;;;;;;;6.93;4.70;;;25.50;65.20;;;;;;4967936;28;20038;-73
2022/06/28 00:46:20;;;;;;;7.95;4.97;;;25.50;65.70;;;;;;4950807;29;20039;-73
2022/06/28 00:48:46;;;;;;;6.15;4.50;;;25.50;65.30;;;;;;4952391;29;20484;-72
2022/06/28 00:51:12;;;;;;;7.35;5.07;;;25.50;65.40;;;;;;4935879;29;20150;-73
2022/06/28 00:53:38;;;;;;;7.95;4.72;;;25.50;65.60;;;;;;4936678;29;20535;-73
2022/06/28 00:56:05;;;;;;;6.07;4.75;;;25.50;65.60;;;;;;4951575;28;20106;-73
2022/06/28 00:58:31;;;;;;;6.35;4.75;;;25.40;65.70;;;;;;4949168;29;20104;-73
2022/06/28 01:00:57;;;;;;;5.85;4.65;;;25.40;65.60;;;;;;4947377;28;20450;-73
2022/06/28 01:03:24;;;;;;;8.40;4.97;;;25.30;65.80;;;;;;4952679;28;20023;-73
2022/06/28 01:05:52;;;;;;;5.93;4.55;;;25.30;65.70;;;;;;4951151;29;20063;-72
2022/06/28 01:08:21;;;;;;;5.72;5.00;;;25.30;65.80;;;;;;4951710;28;20069;-73
2022/06/28 01:10:47;;;;;;;6.28;4.90;;;25.30;65.60;;;;;;4935615;29;20031;-72
2022/06/28 01:13:15;;;;;;;6.63;4.80;;;25.30;65.60;;;;;;4936468;29;20106;-73
2022/06/28 01:15:42;;;;;;;5.72;4.80;;;25.30;65.60;;;;;;4950535;28;20106;-70
2022/06/28 01:18:10;;;;;;;5.85;4.60;;;25.30;65.50;;;;;;4952254;28;20032;-70
2022/06/28 01:20:44;;;;;;;6.80;4.63;;;25.30;65.70;;;;;;4935701;29;20476;-70
2022/06/28 01:23:36;;;;;;;8.02;4.63;;;25.30;65.40;;;;;;4955622;28;20042;-70
2022/06/28 01:26:23;;;;;;;6.88;4.70;;;25.20;65.20;;;;;;4933085;29;20059;-70
2022/06/28 01:28:50;;;;;;;7.53;5.07;;;25.30;65.20;;;;;;4951391;29;20036;-70
2022/06/28 01:31:31;;;;;;;5.55;4.55;;;25.30;65.00;;;;;;4951921;29;20377;-70
2022/06/28 01:34:00;;;;;;;9.57;4.43;;;25.30;65.00;;;;;;4950987;29;20125;-70
2022/06/28 01:36:27;;;;;;;6.03;4.85;;;25.30;65.10;;;;;;4951625;28;20023;-71
2022/06/28 01:38:53;;;;;;;9.18;4.90;;;25.30;65.10;;;;;;4935907;29;20396;-70
2022/06/28 01:41:34;;;;;;;6.18;4.93;;;25.30;65.20;;;;;;4956149;28;20046;-70
2022/06/28 01:44:30;;;;;;;7.60;4.47;;;25.30;65.30;;;;;;4948915;29;20070;-70
2022/06/28 01:47:05;;;;;;;8.57;4.90;;;25.30;65.70;;;;;;4950286;28;20038;-71
2022/06/28 01:49:50;;;;;;;6.05;4.78;;;25.30;65.70;;;;;;4946423;29;20107;-70
2022/06/28 01:52:17;;;;;;;9.57;4.75;;;25.30;65.90;;;;;;4950520;28;20114;-70
2022/06/28 01:54:44;;;;;;;8.32;4.55;;;25.30;66.10;;;;;;4955266;29;20028;-70
2022/06/28 01:57:10;;;;;;;8.10;5.00;;;25.30;66.10;;;;;;4954472;29;20074;-70
2022/06/28 01:59:46;;;;;;;7.30;4.70;;;25.30;66.00;;;;;;4939592;29;20439;-70
2022/06/28 02:02:24;;;;;;;5.80;4.75;;;25.30;65.90;;;;;;4954412;29;20110;-70
2022/06/28 02:05:13;;;;;;;5.70;4.90;;;25.30;65.80;;;;;;4958477;28;20444;-70
2022/06/28 02:07:49;;;;;;;7.78;5.32;;;25.30;65.70;;;;;;4954141;28;20086;-70
2022/06/28 02:10:19;;;;;;;6.90;5.13;;;25.30;66.40;;;;;;4938532;29;20463;-70
2022/06/28 02:12:46;;;;;;;5.28;3.88;;;25.30;65.90;;;;;;4955253;28;20062;-70
2022/06/28 02:15:13;;;;;;;5.03;4.30;;;25.30;65.90;;;;;;4954488;28;20051;-71
2022/06/28 02:17:42;;;;;;;6.20;4.32;;;25.30;66.10;;;;;;4970616;28;20027;-71
2022/06/28 02:20:09;;;;;;;6.72;5.00;;;25.30;66.10;;;;;;4938277;29;20522;-70
2022/06/28 02:22:35;;;;;;;6.68;5.07;;;25.30;66.20;;;;;;4963543;28;20069;-70
2022/06/28 02:25:02;;;;;;;9.20;5.13;;;25.20;66.30;;;;;;4953851;28;20043;-70
2022/06/28 02:27:28;;;;;;;6.53;4.72;;;25.20;66.10;;;;;;4963347;28;20027;-70
2022/06/28 02:29:54;;;;;;;7.68;4.68;;;25.20;65.90;;;;;;4954059;29;20377;-70
2022/06/28 02:32:20;;;;;;;7.10;4.93;;;25.20;66.10;;;;;;4954926;29;20547;-70
2022/06/28 02:40:27;;;;;;;7.10;4.53;;;25.20;66.10;;;;;;4953782;28;20484;-70
2022/06/28 02:42:56;;;;;;;8.43;5.10;;;25.20;66.10;;;;;;4970778;28;20035;-70
2022/06/28 02:45:24;;;;;;;7.38;5.13;;;25.20;66.00;;;;;;4937435;29;20027;-70
2022/06/28 02:47:50;;;;;;;7.10;5.03;;;25.20;65.90;;;;;;4954151;28;20066;-70
2022/06/28 02:50:17;;;;;;;7.90;4.80;;;25.10;65.90;;;;;;4953123;29;20050;-70
2022/06/28 02:52:43;;;;;;;5.70;4.45;;;25.10;65.70;;;;;;4938327;28;20400;-71
2022/06/28 02:55:10;;;;;;;5.75;4.72;;;25.10;65.40;;;;;;4954302;29;20031;-70
2022/06/28 02:57:36;;;;;;;5.72;4.53;;;25.10;65.50;;;;;;4954292;28;20447;-70
2022/06/28 03:00:07;;;;;;;5.03;4.40;;;25.00;65.60;;;;;;4954146;29;20395;-70
2022/06/28 03:02:37;;;;;;;5.57;4.28;;;25.10;65.30;;;;;;4936540;29;20095;-70
2022/06/28 03:05:09;;;;;;;4.60;3.60;;;25.10;65.20;;;;;;4952686;28;20487;-71
2022/06/28 03:07:35;;;;;;;4.28;3.58;;;25.10;65.30;;;;;;4959942;28;20055;-71
2022/06/28 03:10:01;;;;;;;5.35;3.95;;;25.10;65.10;;;;;;4938465;29;20039;-71
2022/06/28 03:12:27;;;;;;;6.05;3.83;;;25.00;65.50;;;;;;4953525;28;20106;-71
2022/06/28 03:14:53;;;;;;;5.07;3.78;;;25.10;65.00;;;;;;4953887;28;20034;-70
2022/06/28 03:17:19;;;;;;;5.90;3.47;;;25.10;64.80;;;;;;4953168;28;20031;-70
2022/06/28 03:19:45;;;;;;;4.38;3.60;;;25.10;64.50;;;;;;4937657;29;20027;-71
2022/06/28 03:22:11;;;;;;;5.10;3.47;;;25.10;64.80;;;;;;4938170;29;20039;-70
2022/06/28 03:24:38;;;;;;;4.38;3.17;;;25.00;64.70;;;;;;4952572;29;20075;-70
2022/06/28 03:27:05;;;;;;;7.30;3.35;;;25.00;64.80;;;;;;4953163;28;20373;-70
2022/06/28 03:29:32;;;;;;;5.53;3.22;;;25.00;64.80;;;;;;4952201;28;20094;-70
2022/06/28 03:31:59;;;;;;;4.57;3.38;;;25.10;64.60;;;;;;4937961;29;20073;-70
2022/06/28 03:34:25;;;;;;;6.85;3.50;;;25.00;64.70;;;;;;4953034;29;20058;-71
2022/06/28 03:36:51;;;;;;;4.72;3.08;;;25.00;64.70;;;;;;4953455;28;20030;-70
2022/06/28 03:39:40;;;;;;;4.20;3.03;;;25.00;64.70;;;;;;4968470;28;20468;-71
2022/06/28 03:42:07;;;;;;;3.90;3.10;;;25.00;64.80;;;;;;4937363;29;20500;-70
2022/06/28 03:44:35;;;;;;;3.53;2.92;;;25.00;64.70;;;;;;4936487;29;20034;-70
2022/06/28 03:47:03;;;;;;;3.55;2.92;;;25.00;64.10;;;;;;4966030;28;20040;-70
2022/06/28 03:49:29;;;;;;;3.10;2.60;;;25.10;64.00;;;;;;4951111;29;20118;-70
2022/06/28 03:51:58;;;;;;;4.05;3.00;;;25.00;64.20;;;;;;4952745;29;20037;-70
2022/06/28 03:54:26;;;;;;;3.72;2.85;;;25.00;63.90;;;;;;4952599;29;20106;-70
2022/06/28 03:57:04;;;;;;;4.10;2.60;;;24.90;63.70;;;;;;4952198;28;20063;-70
2022/06/28 03:59:29;;;;;;;3.92;3.00;;;24.90;63.60;;;;;;4949973;29;20038;-70
2022/06/28 04:01:56;;;;;;;3.47;2.80;;;24.90;63.40;;;;;;4942945;28;20067;-70
2022/06/28 04:04:23;;;;;;;3.50;2.85;;;25.00;63.40;;;;;;4953029;28;20053;-70
2022/06/28 04:06:49;;;;;;;3.53;2.60;;;24.90;63.30;;;;;;4952876;28;20388;-70
2022/06/28 04:09:17;;;;;;;4.30;2.88;;;24.90;62.40;;;;;;4965609;28;20495;-70
2022/06/28 04:11:47;;;;;;;3.85;2.90;;;24.90;62.50;;;;;;4962859;28;20078;-70
2022/06/28 04:14:13;;;;;;;3.25;2.70;;;24.90;62.20;;;;;;4968664;28;20032;-70
2022/06/28 04:16:43;;;;;;;3.90;2.70;;;24.90;62.30;;;;;;4951548;28;20034;-73
2022/06/28 04:19:12;;;;;;;3.60;2.65;;;24.90;62.50;;;;;;4952031;28;20026;-73
2022/06/28 04:21:44;;;;;;;4.00;2.70;;;24.90;62.40;;;;;;4952911;29;20074;-73
2022/06/28 04:24:16;;;;;;;4.20;2.38;;;24.90;62.30;;;;;;4952171;29;20041;-73
2022/06/28 04:27:20;;;;;;;4.85;2.75;;;24.90;62.30;;;;;;4946376;28;20102;-73
2022/06/28 04:29:46;;;;;;;3.35;2.25;;;24.90;62.40;;;;;;4952796;29;20479;-73
2022/06/28 04:32:32;;;;;;;4.47;2.53;;;24.80;62.30;;;;;;4953904;28;20528;-72
2022/06/28 04:34:58;;;;;;;3.38;2.40;;;24.80;62.40;;;;;;4952775;29;20501;-72
2022/06/28 04:37:25;;;;;;;4.35;2.30;;;24.80;62.40;;;;;;4936401;29;20391;-73
2022/06/28 04:39:53;;;;;;;3.95;2.63;;;24.80;62.40;;;;;;4951972;28;20361;-72
2022/06/28 04:42:24;;;;;;;4.80;2.67;;;24.90;62.30;;;;;;4935939;29;20484;-72
2022/06/28 04:44:50;;;;;;;3.17;2.35;;;24.80;62.20;;;;;;4936758;29;20086;-73
2022/06/28 04:47:23;;;;;;;2.33;2.00;;;24.80;62.40;;;;;;4958440;28;20455;-72
2022/06/28 04:49:50;;;;;;;2.83;2.10;;;24.80;62.10;;;;;;4959092;28;20039;-72
2022/06/28 04:52:16;;;;;;;3.65;2.50;;;24.80;62.30;;;;;;4951565;29;20511;-73
2022/06/28 04:54:48;;;;;;;3.33;2.38;;;24.80;62.20;;;;;;4951681;29;20039;-73
2022/06/28 04:57:22;;;;;;;3.65;2.30;;;24.80;62.20;;;;;;4921237;29;20049;-73
2022/06/28 05:00:04;;;;;;;3.92;2.35;;;24.80;62.30;;;;;;4951767;28;20023;-73
2022/06/28 05:02:36;;;;;;;5.90;2.60;;;24.80;62.30;;;;;;4949463;28;20113;-73
2022/06/28 05:05:07;;;;;;;4.13;2.60;;;24.80;62.30;;;;;;4951521;29;20038;-72
2022/06/28 05:07:38;;;;;;;4.88;2.90;;;24.80;62.40;;;;;;4928978;29;20078;-73
2022/06/28 05:10:10;;;;;;;4.68;2.88;;;24.80;62.40;;;;;;4951371;29;20146;-73
2022/06/28 05:12:41;;;;;;;4.10;2.60;;;24.70;62.30;;;;;;4952306;29;20034;-73
2022/06/28 05:15:08;;;;;;;3.50;2.75;;;24.60;63.00;;;;;;4967407;28;20365;-73
2022/06/28 05:17:54;;;;;;;3.53;2.80;;;24.70;62.30;;;;;;4945493;28;20042;-72
2022/06/28 05:20:20;;;;;;;4.05;2.72;;;24.60;62.20;;;;;;4950846;29;20038;-72
2022/06/28 05:22:46;;;;;;;3.25;2.30;;;24.60;62.30;;;;;;4951069;28;20028;-72
2022/06/28 05:25:30;;;;;;;4.15;2.75;;;24.60;62.50;;;;;;4953290;28;20035;-73
2022/06/28 05:27:56;;;;;;;4.97;3.10;;;24.70;62.40;;;;;;4935796;29;20035;-72
2022/06/28 05:30:22;;;;;;;4.82;2.80;;;24.60;62.20;;;;;;4952782;28;20042;-73
2022/06/28 05:32:48;;;;;;;4.07;2.40;;;24.60;61.90;;;;;;4939251;29;20030;-73
2022/06/28 05:35:14;;;;;;;5.40;2.70;;;24.50;62.40;;;;;;4955717;29;20027;-73
2022/06/28 05:37:40;;;;;;;5.00;3.25;;;24.50;61.80;;;;;;4954670;28;20033;-73
2022/06/28 05:40:06;;;;;;;3.78;2.90;;;24.50;62.00;;;;;;4925774;28;20403;-73
2022/06/28 05:42:32;;;;;;;6.10;3.20;;;24.50;61.90;;;;;;4939798;28;20411;-73
2022/06/28 05:44:58;;;;;;;6.53;3.30;;;24.50;61.80;;;;;;4965037;28;20395;-73
2022/06/28 05:47:25;;;;;;;7.47;3.20;;;24.50;61.80;;;;;;4964743;28;20023;-73
2022/06/28 05:49:51;;;;;;;4.65;2.90;;;24.50;61.80;;;;;;4939892;29;20031;-73
2022/06/28 05:52:16;;;;;;;4.53;2.63;;;24.50;61.90;;;;;;4956716;28;20035;-72
2022/06/28 05:54:43;;;;;;;5.38;2.75;;;24.50;61.90;;;;;;4956664;28;20050;-72
2022/06/28 05:57:09;;;;;;;4.88;3.20;;;24.50;61.80;;;;;;4980223;28;21031;-71
2022/06/28 05:59:34;;;;;;;3.72;2.40;;;24.50;61.60;;;;;;4974772;28;20065;-72
2022/06/28 06:02:00;;;;;;;5.03;2.65;;;24.50;61.70;;;;;;4974713;28;20030;-72
2022/06/28 06:04:26;;;;;;;3.67;2.45;;;24.40;60.80;;;;;;4949077;28;20062;-72
2022/06/28 06:06:54;;;;;;;3.53;2.40;;;24.40;60.60;;;;;;4955186;28;20047;-72
2022/06/28 06:09:20;;;;;;;4.80;2.83;;;24.40;60.60;;;;;;4948045;23;20048;-73
2022/06/28 06:11:47;;;;;;;3.97;2.22;;;24.40;60.30;;;;;;4952076;28;20035;-73
2022/06/28 06:14:15;;;;;;;6.85;2.70;;;24.50;60.30;;;;;;4936207;29;20035;-73
2022/06/28 06:16:41;;;;;;;4.32;2.85;;;24.40;60.30;;;;;;4935778;29;20410;-72
2022/06/28 06:19:07;;;;;;;4.28;2.28;;;24.40;60.20;;;;;;4936043;29;20061;-73
2022/06/28 06:21:33;;;;;;;3.42;2.45;;;24.40;60.20;;;;;;4935922;29;20034;-73
2022/06/28 06:23:59;;;;;;;5.40;2.60;;;24.50;60.40;;;;;;4937301;29;20373;-73
2022/06/28 06:26:44;;;;;;;6.22;2.30;;;24.40;60.10;;;;;;4936852;29;20032;-73
2022/06/28 06:29:10;;;;;;;5.28;2.75;;;24.50;60.10;;;;;;4951554;29;20505;-72
2022/06/28 06:31:36;;;;;;;3.80;2.20;;;24.50;60.10;;;;;;4935714;29;20111;-73
2022/06/28 06:34:20;;;;;;;6.28;2.67;;;24.40;59.90;;;;;;4936980;29;20020;-73
2022/06/28 06:36:52;;;;;;;7.32;2.60;;;24.50;59.80;;;;;;4935352;29;20039;-73
2022/06/28 06:39:19;;;;;;;3.58;2.40;;;24.40;59.60;;;;;;4936058;29;20027;-72
2022/06/28 06:41:45;;;;;;;3.92;2.67;;;24.40;59.60;;;;;;4942954;29;20035;-73
2022/06/28 06:44:11;;;;;;;3.97;2.72;;;24.40;59.50;;;;;;4935152;29;20477;-73
2022/06/28 06:46:41;;;;;;;4.50;2.47;;;24.50;59.10;;;;;;4942455;29;20028;-73
2022/06/28 06:49:07;;;;;;;3.45;2.20;;;24.50;59.10;;;;;;4952324;29;20407;-73
2022/06/28 06:51:32;;;;;;;2.22;2.00;;;24.40;59.10;;;;;;4940042;29;20027;-73
2022/06/28 06:53:58;;;;;;;3.67;2.70;;;24.40;59.30;;;;;;4944107;28;20546;-73
2022/06/28 06:56:25;;;;;;;4.03;2.05;;;24.50;59.20;;;;;;4935816;29;20027;-73
2022/06/28 06:58:51;;;;;;;5.38;2.10;;;24.50;59.20;;;;;;4939905;29;20031;-73
2022/06/28 07:01:17;;;;;;;9.25;1.85;;;24.50;59.00;;;;;;4929943;29;20035;-73
2022/06/28 07:03:44;;;;;;;2.67;1.80;;;24.50;58.90;;;;;;4955638;28;20480;-73
2022/06/28 07:06:14;;;;;;;2.38;1.80;;;24.50;58.70;;;;;;4937136;29;20032;-73
2022/06/28 07:08:40;;;;;;;5.22;1.98;;;24.60;58.60;;;;;;4925750;29;20020;-73
2022/06/28 07:11:11;;;;;;;4.35;2.05;;;24.50;58.40;;;;;;4935022;29;20028;-73
2022/06/28 07:13:36;;;;;;;1.98;1.60;;;24.50;58.40;;;;;;4921905;29;20477;-73
2022/06/28 07:16:03;;;;;;;3.90;2.67;;;24.50;58.50;;;;;;4933859;29;20031;-73
2022/06/28 07:18:29;;;;;;;4.35;2.60;;;24.50;58.50;;;;;;4925888;29;20035;-73
2022/06/28 07:20:57;;;;;;;6.38;2.20;;;24.50;58.80;;;;;;4949506;28;20031;-72
2022/06/28 07:23:23;;;;;;;6.13;2.53;;;24.50;58.40;;;;;;4947160;29;20124;-73
2022/06/28 07:25:49;;;;;;;6.45;2.30;;;24.60;58.70;;;;;;4934634;29;20046;-73
2022/06/28 07:28:18;;;;;;;4.32;2.17;;;24.50;58.30;;;;;;4934627;29;20114;-74
2022/06/28 07:30:44;;;;;;;4.78;2.10;;;24.60;58.20;;;;;;4915642;29;20461;-73
2022/06/28 07:33:10;;;;;;;3.00;2.10;;;24.60;57.90;;;;;;4936895;29;20408;-73
2022/06/28 07:35:36;;;;;;;4.38;1.98;;;24.60;57.50;;;;;;4933400;29;20110;-73
2022/06/28 07:38:02;;;;;;;3.15;1.67;;;24.60;57.50;;;;;;4935749;29;20036;-73
2022/06/28 07:40:46;;;;;;;2.97;1.70;;;24.50;57.40;;;;;;4942975;29;20023;-74
2022/06/28 07:43:44;;;;;;;3.17;1.60;;;24.60;57.20;;;;;;4941401;29;20034;-73
2022/06/28 07:46:13;;;;;;;2.42;1.80;;;24.60;57.20;;;;;;4946030;29;20042;-73
2022/06/28 07:48:39;;;;;;;3.05;1.88;;;24.60;57.30;;;;;;4938674;29;20028;-73
2022/06/28 07:53:54;;;;;;;3.67;2.03;;;24.60;57.50;;;;;;4936565;29;20036;-71
2022/06/28 07:56:28;;;;;;;4.63;2.00;;;24.60;57.70;;;;;;4926702;29;20039;-71
2022/06/28 07:58:57;;;;;;;9.00;2.50;;;24.60;57.80;;;;;;4945884;29;20032;-72
2022/06/28 08:01:28;;;;;;;14.93;2.88;;;24.60;58.80;;;;;;4926928;29;20403;-73
2022/06/28 08:03:55;;;;;;;9.27;2.58;;;24.60;59.60;;;;;;4932361;29;20035;-74
2022/06/28 08:06:21;;;;;;;8.68;2.50;;;24.60;59.50;;;;;;4942830;29;20036;-73
2022/06/28 08:08:56;;;;;;;7.95;1.92;;;24.60;59.30;;;;;;4930152;29;20115;-74
2022/06/28 08:11:22;;;;;;;8.43;2.30;;;24.60;59.20;;;;;;4927651;29;20138;-74
2022/06/28 08:13:50;;;;;;;12.68;1.90;;;24.60;59.00;;;;;;4938853;29;20399;-73
2022/06/28 08:16:16;;;;;;;8.57;2.50;;;24.70;59.50;;;;;;4944833;29;20387;-73
2022/06/28 08:18:44;;;;;;;5.93;2.13;;;24.70;59.40;;;;;;4943003;29;20102;-74
2022/06/28 08:21:10;;;;;;;4.03;1.90;;;24.60;62.80;;;;;;4940044;29;20115;-74
2022/06/28 08:23:36;;;;;;;5.25;1.70;;;24.50;60.60;;;;;;4927455;29;22170;-73
2022/06/28 08:26:02;;;;;;;4.35;1.60;;;24.50;60.20;;;;;;4930451;29;20027;-74
2022/06/28 08:28:28;;;;;;;3.42;1.90;;;24.60;59.40;;;;;;4935824;29;20032;-73
2022/06/28 08:30:58;;;;;;;9.50;2.72;;;24.40;58.70;;;;;;4943227;29;20055;-74
2022/06/28 08:33:24;;;;;;;8.63;4.43;;;24.30;60.00;;;;;;4942029;29;20032;-74
2022/06/28 08:35:53;;;;;;;3.00;1.60;;;24.20;59.40;;;;;;4930627;29;20086;-74
2022/06/28 08:38:19;;;;;;;3.47;2.40;;;23.80;59.30;;;;;;4944879;29;20960;-74
2022/06/28 08:40:46;;;;;;;5.03;1.80;;;24.10;59.20;;;;;;4929321;29;20385;-72
2022/06/28 08:43:14;;;;;;;3.53;2.20;;;24.00;59.60;;;;;;4934719;29;20031;-72
2022/06/28 08:45:42;;;;;;;3.15;1.80;;;24.20;59.50;;;;;;4934318;29;20093;-72
2022/06/28 08:48:17;;;;;;;;;;;24.20;59.40;;;;;;4934834;29;20032;-72
2022/06/28 08:50:49;;;;;;;3.50;2.05;;;24.20;59.00;;;;;;4934682;29;20016;-72
2022/06/28 08:53:18;;;;;;;4.00;1.50;;;24.30;58.70;;;;;;4934620;29;20028;-71
2022/06/28 08:55:47;;;;;;;2.28;1.63;;;24.20;58.20;;;;;;4934323;29;20106;-71
2022/06/28 08:58:13;;;;;;;2.20;1.90;;;23.80;57.50;;;;;;4934512;29;20428;-71
2022/06/28 09:00:38;;;;;;;2.83;1.80;;;24.00;57.90;;;;;;4933089;29;20035;-71
2022/06/28 09:03:04;;;;;;;7.93;3.65;;;23.90;58.10;;;;;;4931326;29;20388;-72
2022/06/28 09:05:33;;;;;;;62.58;41.75;;;23.90;57.70;;;;;;4938221;29;20485;-72
2022/06/28 09:07:59;;;;;;;159.23;111.50;;;23.90;58.30;;;;;;4936988;29;20034;-72
2022/06/28 09:10:26;;;;;;;94.90;66.55;;;24.20;58.10;;;;;;4938441;29;20027;-75
2022/06/28 09:13:06;;;;;;;108.38;78.07;;;24.30;57.70;;;;;;4938081;29;20055;-73
2022/06/28 09:15:52;;;;;;;111.75;82.00;;;24.50;57.70;;;;;;4938060;29;20508;-72
2022/06/28 09:18:22;;;;;;;115.22;83.63;;;24.60;57.60;;;;;;4938173;29;20038;-72
2022/06/28 09:20:53;;;;;;;75.45;53.40;;;24.60;57.40;;;;;;4938064;29;20024;-73
2022/06/28 09:23:23;;;;;;;90.72;68.80;;;24.80;57.40;;;;;;4938189;29;20063;-73
2022/06/28 09:25:49;;;;;;;59.50;39.60;;;24.80;57.80;;;;;;4937755;29;20539;-72
2022/06/28 09:28:28;;;;;;;38.55;25.73;;;24.80;57.20;;;;;;4937356;29;20038;-73
2022/06/28 09:31:15;;;;;;;39.77;26.97;;;24.80;57.00;;;;;;4938251;29;20039;-72
2022/06/28 09:34:04;;;;;;;28.52;18.50;;;24.80;56.60;;;;;;4938033;29;20271;-73
2022/06/28 09:36:32;;;;;;;;;;;24.80;56.60;;;;;;4940217;29;20079;-72
2022/06/28 09:39:08;;;;;;;29.50;17.52;;;24.80;56.50;;;;;;4936761;29;19962;-72
2022/06/28 09:41:34;;;;;;;15.05;8.73;;;24.80;56.60;;;;;;4938047;29;20042;-72
2022/06/28 09:44:03;;;;;;;19.25;9.25;;;24.90;56.20;;;;;;4937892;29;20024;-73
2022/06/28 09:46:32;;;;;;;29.70;10.43;;;24.90;58.90;;;;;;4936563;29;20062;-73
2022/06/28 09:49:06;;;;;;;15.52;7.10;;;24.90;58.00;;;;;;4938039;29;20059;-73
2022/06/28 09:51:35;;;;;;;7.70;3.13;;;24.90;58.30;;;;;;4937798;29;20035;-72
2022/06/28 09:54:07;;;;;;;4.63;2.65;;;24.50;57.70;;;;;;4937786;29;20058;-72
2022/06/28 09:56:42;;;;;;;8.60;3.42;;;24.60;58.30;;;;;;4937482;29;20106;-72
2022/06/28 09:59:10;;;;;;;8.55;3.20;;;24.70;58.10;;;;;;4952518;29;20122;-72
2022/06/28 10:01:36;;;;;;;7.45;3.10;;;24.80;58.60;;;;;;4920782;29;20123;-72
2022/06/28 10:04:02;;;;;;;7.57;3.53;;;24.80;58.00;;;;;;4936378;29;20031;-72
2022/06/28 10:06:31;;;;;;;12.65;3.60;;;24.90;58.10;;;;;;4933202;29;20031;-72
2022/06/28 10:08:58;;;;;;;7.88;3.42;;;25.00;57.60;;;;;;4934227;29;20492;-72
2022/06/28 10:11:24;;;;;;;8.52;3.50;;;25.00;58.70;;;;;;4936659;29;20059;-72
2022/06/28 10:16:48;;;;;;;7.28;3.30;;;25.10;58.20;;;;;;4936867;29;20027;-72
2022/06/28 10:19:19;;;;;;;6.22;2.78;;;25.10;58.10;;;;;;4936918;29;20472;-72
2022/06/28 10:22:10;;;;;;;10.60;3.30;;;25.10;58.10;;;;;;4937002;29;20122;-72
2022/06/28 10:24:52;;;;;;;5.72;2.97;;;25.10;58.10;;;;;;4936038;29;20035;-72
2022/06/28 10:27:18;;;;;;;5.18;2.85;;;25.20;58.30;;;;;;4936698;29;20036;-72
2022/06/28 10:30:08;;;;;;;6.32;2.60;;;25.20;58.10;;;;;;4936671;29;20126;-72
2022/06/28 10:33:03;;;;;;;4.00;2.33;;;25.20;58.10;;;;;;4936669;29;20063;-72
2022/06/28 10:35:28;;;;;;;5.15;2.72;;;25.20;58.00;;;;;;4936999;29;20484;-72
2022/06/28 10:38:09;;;;;;;6.18;3.00;;;25.30;58.00;;;;;;4935360;29;20038;-72
2022/06/28 10:40:42;;;;;;;6.63;2.50;;;25.30;58.10;;;;;;4935472;29;20027;-72
2022/06/28 10:43:34;;;;;;;6.22;2.50;;;25.30;57.90;;;;;;4936846;29;20519;-72
2022/06/28 10:46:08;;;;;;;6.93;2.70;;;25.30;58.00;;;;;;4936487;29;20035;-72
2022/06/28 10:48:49;;;;;;;5.90;2.47;;;25.30;58.00;;;;;;4936410;29;20275;-72
2022/06/28 10:51:15;;;;;;;3.45;1.92;;;25.30;58.00;;;;;;4936572;29;20042;-72
2022/06/28 10:54:30;;;;;;;2.78;1.17;;;25.30;57.60;;;;;;4936479;29;20536;-70
2022/06/28 10:56:48;;;;;;;4.30;1.80;;;25.10;54.80;;;;;;4936846;29;20047;-70
2022/06/28 10:59:16;;;;;;;6.47;3.30;;;25.10;55.70;;;;;;4935196;29;20437;-70
2022/06/28 11:01:42;;;;;;;11.50;6.10;;;25.00;55.30;;;;;;4936333;29;20527;-71
2022/06/28 11:04:19;;;;;;;7.72;4.70;;;25.00;55.60;;;;;;4936339;29;20042;-71
2022/06/28 11:06:46;;;;;;;6.18;3.70;;;25.10;56.30;;;;;;4936146;29;20042;-71
2022/06/28 11:09:15;;;;;;;4.05;2.00;;;25.10;54.60;;;;;;4935980;29;20115;-70
2022/06/28 11:12:07;;;;;;;1.95;1.52;;;25.10;53.90;;;;;;4936330;29;20035;-71
2022/06/28 11:14:41;;;;;;;3.65;2.03;;;25.00;55.60;;;;;;4936435;29;20111;-70
2022/06/28 11:17:18;;;;;;;6.28;2.42;;;25.10;57.30;;;;;;4934601;29;20028;-72
2022/06/28 11:19:53;;;;;;;4.57;1.75;;;25.20;54.60;;;;;;4935909;29;20488;-71
2022/06/28 11:22:27;;;;;;;3.33;1.67;;;25.10;54.40;;;;;;4936110;29;20106;-71
2022/06/28 11:24:54;;;;;;;3.03;1.70;;;25.10;55.60;;;;;;4935827;29;20543;-71
2022/06/28 11:27:24;;;;;;;2.05;1.38;;;25.20;55.50;;;;;;4933973;29;20031;-71
2022/06/28 11:29:59;;;;;;;;;;;25.10;53.70;;;;;;4936107;29;20027;-71
2022/06/28 11:32:29;;;;;;;4.40;0.95;;;24.80;53.50;;;;;;4935741;29;19914;-70
2022/06/28 11:35:01;;;;;;;1.48;1.02;;;24.70;51.70;;;;;;4950688;29;20034;-70
2022/06/28 11:37:31;;;;;;;1.40;1.10;;;24.80;53.30;;;;;;4935587;29;20027;-71
2022/06/28 11:40:00;;;;;;;1.83;1.00;;;24.70;53.70;;;;;;4935540;29;20671;-71
2022/06/28 11:42:26;;;;;;;1.17;0.90;;;24.90;56.40;;;;;;4935744;29;20039;-71
2022/06/28 11:44:53;;;;;;;2.03;1.27;;;24.90;52.90;;;;;;4934478;29;20385;-70
2022/06/28 11:47:22;;;;;;;1.25;1.08;;;25.00;56.00;;;;;;4934009;29;20040;-70
2022/06/28 11:50:11;;;;;;;1.55;1.02;;;25.10;57.70;;;;;;4935382;29;20032;-71
2022/06/28 11:52:48;;;;;;;4.00;1.20;;;25.10;53.10;;;;;;4934957;29;20689;-71
2022/06/28 11:55:15;;;;;;;1.38;0.93;;;25.10;55.90;;;;;;4935484;29;20091;-70
2022/06/28 11:58:06;;;;;;;2.45;0.68;;;25.20;52.80;;;;;;4933872;29;20028;-71
2022/06/28 12:00:34;;;;;;;5.18;2.50;;;25.30;53.50;;;;;;4935250;29;20031;-69
2022/06/28 12:03:03;;;;;;;6.15;1.40;;;25.30;54.30;;;;;;4935377;29;20397;-69
2022/06/28 12:05:32;;;;;;;4.15;1.70;;;25.30;54.80;;;;;;4935205;29;20042;-70
2022/06/28 12:07:59;;;;;;;3.70;2.15;;;25.40;55.20;;;;;;4933913;29;20035;-70
2022/06/28 12:10:29;;;;;;;;;;;25.40;56.30;;;;;;4935496;29;20080;-70
2022/06/28 12:13:09;;;;;;;;;;;25.40;55.20;;;;;;4935575;29;19945;-70
2022/06/28 12:15:38;;;;;;;2.97;1.98;;;25.40;55.60;;;;;;4934968;29;19910;-69
2022/06/28 12:18:08;;;;;;;3.88;2.00;;;25.50;56.00;;;;;;4935029;29;20059;-70
2022/06/28 12:20:35;;;;;;;5.10;2.13;;;25.50;56.10;;;;;;4934895;29;20454;-70
2022/06/28 12:23:03;;;;;;;4.88;2.03;;;25.40;56.00;;;;;;4934128;29;20036;-70
2022/06/28 12:25:29;;;;;;;3.42;1.90;;;25.40;56.20;;;;;;4933619;29;20392;-70
2022/06/28 12:27:55;;;;;;;3.70;2.10;;;25.50;56.50;;;;;;4934759;29;20476;-70
2022/06/28 12:30:25;;;;;;;7.70;1.90;;;25.50;56.60;;;;;;4934875;29;20551;-72
2022/06/28 12:32:52;;;;;;;4.03;1.90;;;25.50;57.60;;;;;;4917685;29;20079;-72
2022/06/28 12:35:19;;;;;;;3.90;1.90;;;25.50;55.80;;;;;;4933579;29;20031;-72
2022/06/28 12:37:46;;;;;;;3.72;1.90;;;25.50;56.20;;;;;;4934242;29;20024;-72
2022/06/28 12:40:15;;;;;;;5.03;1.65;;;25.50;56.90;;;;;;4934623;29;20049;-73
2022/06/28 12:42:41;;;;;;;2.78;1.60;;;25.50;56.30;;;;;;4934728;29;20128;-73
2022/06/28 12:45:07;;;;;;;2.17;1.50;;;25.50;56.20;;;;;;4934807;29;20047;-72
2022/06/28 12:47:39;;;;;;;6.30;1.70;;;25.50;56.30;;;;;;4934383;29;20057;-72
2022/06/28 12:50:08;;;;;;;3.72;1.67;;;25.40;56.30;;;;;;4934404;29;20556;-72
2022/06/28 12:52:36;;;;;;;2.63;1.75;;;25.40;56.40;;;;;;4934616;29;20038;-72
2022/06/28 12:55:05;;;;;;;2.17;1.50;;;25.50;56.60;;;;;;4933568;29;20024;-72
2022/06/28 12:57:31;;;;;;;2.88;1.52;;;25.50;56.70;;;;;;4934653;29;20612;-72
2022/06/28 12:59:57;;;;;;;2.95;1.65;;;25.50;56.80;;;;;;4949319;29;20039;-72
2022/06/28 13:02:23;;;;;;;3.75;1.58;;;25.50;56.80;;;;;;4917725;29;20048;-74
2022/06/28 13:04:50;;;;;;;3.20;1.60;;;25.50;56.80;;;;;;4934693;29;20086;-72
2022/06/28 13:07:21;;;;;;;4.28;1.75;;;25.50;56.90;;;;;;4934390;29;20114;-73
2022/06/28 13:09:48;;;;;;;2.95;1.60;;;25.50;56.90;;;;;;4933272;29;20039;-73
2022/06/28 13:12:15;;;;;;;3.15;1.40;;;25.50;57.00;;;;;;4934439;29;20059;-73
2022/06/28 13:14:41;;;;;;;8.45;1.73;;;25.50;57.30;;;;;;4934466;29;20031;-73
2022/06/28 13:17:07;;;;;;;7.97;1.95;;;25.50;57.80;;;;;;4934694;29;20374;-72